Weather forecast for Kerch (Керчь)

Ukraine, 10 m
N45.193, E36.303


Sounding

Red line — air temperature ˚C.
Blue line — thermal bubble temperature ˚C.
Green line — dew point temperature ˚C.
Wind speed is in meters per second.

Table forecast

GFS 0.25˚ model

temp. wind gust humid. clouds prec. press. hpbl
Wed21 00:00 7 28.0 nne 4 5 88 100 0.2 1020 392
03:00 7 40.0 ne 4 5 86 99 0.3 1021 426
06:00 6 50.0 ne 5 6 84 100 0.1 1021 537
09:00 6 56.0 ne 5 7 83 99 0.1 1021 533
12:00 6 49.0 ne 5 7 75 85 0.0 1020 725
15:00 5 47.0 ne 5 7 79 91 0.1 1020 634
18:00 5 43.0 ne 7 9 81 100 0.1 1019 712
21:00 4 47.0 ne 7 10 77 94 0.1 1019 725
 
Thu22 00:00 3 48.0 ne 7 11 74 21 0.0 1019 572
03:00 3 49.0 ne 7 11 71 35 0.0 1019 512
06:00 3 47.0 ne 6 10 76 94 0.0 1019 452
09:00 3 41.0 ne 6 9 76 64 0.0 1020 678
12:00 5 37.0 ne 7 9 67 1 0.0 1020 782
15:00 5 26.0 nne 6 8 67 0 0.0 1020 725
18:00 3 17.0 nne 5 8 74 0 0.0 1021 401
21:00 3 6.0 n 4 7 71 0 0.0 1021 213
 
Fri23 00:00 2 352.0 n 4 7 69 0 0.0 1022 168
03:00 2 343.0 nnw 4 7 72 0 0.0 1022 197
06:00 1 334.0 nnw 4 8 74 0 0.0 1022 218
09:00 2 328.0 nnw 5 8 71 0 0.0 1024 534
12:00 4 336.0 nnw 6 8 61 0 0.0 1025 647
15:00 4 347.0 nnw 6 7 63 0 0.0 1026 633
18:00 2 5.0 n 4 6 72 0 0.0 1028 228
21:00 2 36.0 ne 4 6 79 0 0.0 1029 136
 
Sat24 00:00 2 63.0 ene 4 7 80 47 0.0 1030 312
03:00 1 64.0 ene 4 7 80 29 0.0 1030 180
06:00 1 62.0 ene 4 7 81 0 0.0 1029 197
09:00 2 68.0 ene 5 8 75 0 0.0 1030 410
12:00 4 71.0 ene 5 6 61 0 0.0 1029 426
15:00 5 72.0 ene 4 4 59 0 0.0 1027 416
18:00 3 84.0 e 2 3 71 0 0.0 1026 31
21:00 3 90.0 e 1 2 80 0 0.0 1025 23
 
Sun25 00:00 3 48.0 ne 1 1 84 0 0.0 1024 22
03:00 3 33.0 nne 1 1 85 0 0.0 1023 23
06:00 3 44.0 ne 1 1 89 0 0.0 1022 23
09:00 4 3.0 n 1 1 91 0 0.0 1022 23
12:00 8 39.0 ne 1 1 76 0 0.0 1020 242
15:00 9 338.0 nnw 1 1 73 0 0.0 1019 376
18:00 6 63.0 ene 1 1 87 0 0.0 1018 22
21:00 5 134.0 se 1 1 91 1 0.0 1018 22
 

0.014 s